createdAt,value
2022-10-05T00:01:32.176Z,10.70
2022-10-05T00:04:03.420Z,10.80
2022-10-05T00:06:31.454Z,10.70
2022-10-05T00:09:00.942Z,10.80
2022-10-05T00:11:28.685Z,10.80
2022-10-05T00:13:56.317Z,10.80
2022-10-05T00:16:25.411Z,10.90
2022-10-05T00:18:54.504Z,10.90
2022-10-05T00:21:23.534Z,10.90
2022-10-05T00:23:51.381Z,10.90
2022-10-05T00:26:21.469Z,11.00
2022-10-05T00:28:49.506Z,11.00
2022-10-05T00:31:21.107Z,11.10
2022-10-05T00:33:50.358Z,11.20
2022-10-05T00:36:18.229Z,11.10
2022-10-05T00:38:46.045Z,11.10
2022-10-05T00:41:15.580Z,11.10
2022-10-05T00:43:50.274Z,11.00
2022-10-05T00:46:19.400Z,11.00
2022-10-05T00:48:50.620Z,10.90
2022-10-05T00:51:23.207Z,10.90
2022-10-05T00:53:55.142Z,11.00
2022-10-05T00:56:32.612Z,11.00
2022-10-05T00:59:06.773Z,11.00
2022-10-05T01:01:37.813Z,10.90
2022-10-05T01:04:11.811Z,11.00
2022-10-05T01:06:44.335Z,11.00
2022-10-05T01:09:18.423Z,11.00
2022-10-05T01:11:52.426Z,11.00
2022-10-05T01:14:23.060Z,11.00
2022-10-05T01:16:52.902Z,11.00
2022-10-05T01:19:29.050Z,11.10
2022-10-05T01:22:01.878Z,11.20
2022-10-05T01:24:38.286Z,11.20
2022-10-05T01:27:17.576Z,11.10
2022-10-05T01:29:50.465Z,11.00
2022-10-05T01:32:23.722Z,11.10
2022-10-05T01:34:54.457Z,11.20
2022-10-05T01:37:26.963Z,11.10
2022-10-05T01:40:01.384Z,11.00
2022-10-05T01:42:34.560Z,11.10
2022-10-05T01:45:05.449Z,11.20
2022-10-05T01:47:37.821Z,11.10
2022-10-05T01:50:09.468Z,11.10
2022-10-05T01:52:42.983Z,11.10
2022-10-05T01:55:18.575Z,11.10
2022-10-05T01:58:00.036Z,11.10
2022-10-05T02:00:29.554Z,11.00
2022-10-05T02:03:00.492Z,11.00
2022-10-05T02:05:31.050Z,11.00
2022-10-05T02:08:01.332Z,10.90
2022-10-05T02:10:32.028Z,11.00
2022-10-05T02:13:01.776Z,11.00
2022-10-05T02:15:34.672Z,10.90
2022-10-05T02:18:05.467Z,11.00
2022-10-05T02:20:35.491Z,11.00
2022-10-05T02:23:10.326Z,11.00
2022-10-05T02:25:40.070Z,10.90
2022-10-05T02:28:10.807Z,10.90
2022-10-05T02:30:42.312Z,10.90
2022-10-05T02:33:11.526Z,10.90
2022-10-05T02:35:39.361Z,10.80
2022-10-05T02:38:10.541Z,10.90
2022-10-05T02:40:42.522Z,10.90
2022-10-05T02:43:15.548Z,10.80
2022-10-05T02:45:47.879Z,10.80
2022-10-05T02:48:20.681Z,10.90
2022-10-05T02:50:52.139Z,11.00
2022-10-05T02:53:24.210Z,10.90
2022-10-05T02:55:55.731Z,10.90
2022-10-05T02:58:24.377Z,10.90
2022-10-05T03:00:59.889Z,10.80
2022-10-05T03:03:30.540Z,10.90
2022-10-05T03:06:00.781Z,11.00
2022-10-05T03:08:32.907Z,11.00
2022-10-05T03:11:05.244Z,11.00
2022-10-05T03:13:35.361Z,11.00
2022-10-05T03:16:09.631Z,11.10
2022-10-05T03:18:41.894Z,11.10
2022-10-05T03:21:15.342Z,11.10
2022-10-05T03:23:47.583Z,11.10
2022-10-05T03:26:23.818Z,11.10
2022-10-05T03:28:55.716Z,11.10
2022-10-05T03:31:28.054Z,11.10
2022-10-05T03:33:57.452Z,11.10
2022-10-05T03:36:28.062Z,11.10
2022-10-05T03:38:59.208Z,11.00
2022-10-05T03:41:31.350Z,11.10
2022-10-05T03:44:05.466Z,11.00
2022-10-05T03:46:40.100Z,11.00
2022-10-05T03:49:11.904Z,11.00
2022-10-05T03:51:41.565Z,11.00
2022-10-05T03:54:11.448Z,11.00
2022-10-05T03:56:41.327Z,10.90
2022-10-05T03:59:11.196Z,10.90
2022-10-05T04:01:41.968Z,11.00
2022-10-05T04:04:11.988Z,10.90
2022-10-05T04:06:43.187Z,10.90
2022-10-05T04:09:13.789Z,10.90
2022-10-05T04:11:45.521Z,11.00
2022-10-05T04:14:17.726Z,11.00
2022-10-05T04:16:48.505Z,11.00
2022-10-05T04:19:20.150Z,11.00
2022-10-05T04:21:50.231Z,10.90
2022-10-05T04:24:19.255Z,10.90
2022-10-05T04:26:50.599Z,11.00
2022-10-05T04:29:24.769Z,11.00
2022-10-05T04:32:01.918Z,11.10
2022-10-05T04:34:45.202Z,11.00
2022-10-05T04:37:18.700Z,11.00
2022-10-05T04:39:48.307Z,11.00
2022-10-05T04:42:19.852Z,11.00
2022-10-05T04:45:00.716Z,11.00
2022-10-05T04:47:40.854Z,11.00
2022-10-05T04:50:18.826Z,10.90
2022-10-05T04:52:50.304Z,10.80
2022-10-05T04:55:22.932Z,10.80
2022-10-05T04:57:51.542Z,10.80
2022-10-05T05:00:23.651Z,10.80
2022-10-05T05:03:01.026Z,10.70
2022-10-05T05:05:32.655Z,10.80
2022-10-05T05:08:07.000Z,10.80
2022-10-05T05:10:44.093Z,10.80
2022-10-05T05:13:28.350Z,10.90
2022-10-05T05:15:59.552Z,11.00
2022-10-05T05:18:38.373Z,11.00
2022-10-05T05:21:10.175Z,11.00
2022-10-05T05:23:40.374Z,11.00
2022-10-05T05:26:12.521Z,11.00
2022-10-05T05:28:44.838Z,11.10
2022-10-05T05:31:17.045Z,11.10
2022-10-05T05:33:54.552Z,11.10
2022-10-05T05:36:28.073Z,11.00
2022-10-05T05:39:01.350Z,11.10
2022-10-05T05:41:31.517Z,11.10
2022-10-05T05:44:04.704Z,11.10
2022-10-05T05:46:58.742Z,11.10
2022-10-05T05:49:27.760Z,11.10
2022-10-05T05:51:57.007Z,11.10
2022-10-05T05:54:28.633Z,11.10
2022-10-05T05:56:58.974Z,11.20
2022-10-05T05:59:28.737Z,11.10
2022-10-05T06:02:00.717Z,11.20
2022-10-05T06:04:33.566Z,11.20
2022-10-05T06:07:02.946Z,11.20
2022-10-05T06:09:34.707Z,11.10
2022-10-05T06:12:05.714Z,11.10
2022-10-05T06:14:36.031Z,11.20
2022-10-05T06:17:06.063Z,11.20
2022-10-05T06:19:35.799Z,11.30
2022-10-05T06:22:06.426Z,11.20
2022-10-05T06:24:37.478Z,11.30
2022-10-05T06:27:12.276Z,11.30
2022-10-05T06:29:46.117Z,11.30
2022-10-05T06:32:17.041Z,11.40
2022-10-05T06:34:52.688Z,11.30
2022-10-05T06:37:25.893Z,11.40
2022-10-05T06:40:06.108Z,11.40
2022-10-05T06:42:42.679Z,11.40
2022-10-05T06:45:16.085Z,11.40
2022-10-05T06:47:48.075Z,11.40
2022-10-05T06:50:19.725Z,11.40
2022-10-05T06:52:53.899Z,11.60
2022-10-05T06:55:24.818Z,11.50
2022-10-05T06:58:00.895Z,11.60
2022-10-05T07:00:30.322Z,11.70
2022-10-05T07:03:01.499Z,11.70
2022-10-05T07:05:40.363Z,11.70
2022-10-05T07:08:10.662Z,11.80
2022-10-05T07:10:41.599Z,11.70
2022-10-05T07:13:16.754Z,11.80
2022-10-05T07:15:48.595Z,11.80
2022-10-05T07:18:28.082Z,11.90
2022-10-05T07:21:00.157Z,11.90
2022-10-05T07:23:33.804Z,11.90
2022-10-05T07:26:04.392Z,12.00
2022-10-05T07:28:35.802Z,12.10
2022-10-05T07:31:06.444Z,12.20
2022-10-05T07:33:36.939Z,12.20
2022-10-05T07:36:26.011Z,12.30
2022-10-05T07:38:55.408Z,12.40
2022-10-05T07:41:26.987Z,12.50
2022-10-05T07:44:02.580Z,12.60
2022-10-05T07:46:36.644Z,12.70
2022-10-05T07:49:10.021Z,12.80
2022-10-05T07:51:41.355Z,12.90
2022-10-05T07:54:17.513Z,12.90
2022-10-05T07:56:46.096Z,13.10
2022-10-05T07:59:17.620Z,13.10
2022-10-05T08:01:48.474Z,13.20
2022-10-05T08:04:17.950Z,13.30
2022-10-05T08:06:50.981Z,13.50
2022-10-05T08:09:24.615Z,13.60
2022-10-05T08:11:54.259Z,13.60
2022-10-05T08:14:25.960Z,13.80
2022-10-05T08:16:55.125Z,13.90
2022-10-05T08:19:24.993Z,14.00
2022-10-05T08:21:56.882Z,14.10
2022-10-05T08:24:35.379Z,14.20
2022-10-05T08:27:06.392Z,14.30
2022-10-05T08:29:35.853Z,14.50
2022-10-05T08:32:04.489Z,14.50
2022-10-05T08:34:36.769Z,14.80
2022-10-05T08:37:07.676Z,14.70
2022-10-05T08:39:40.992Z,14.80
2022-10-05T08:42:27.222Z,14.90
2022-10-05T08:45:06.651Z,15.00
2022-10-05T08:47:45.602Z,15.10
2022-10-05T08:50:21.591Z,15.10
2022-10-05T08:53:02.228Z,15.10
2022-10-05T08:55:36.951Z,15.20
2022-10-05T08:58:15.015Z,15.30
2022-10-05T09:00:49.913Z,15.30
2022-10-05T09:03:28.972Z,15.30
2022-10-05T09:06:07.021Z,15.30
2022-10-05T09:08:51.343Z,15.30
2022-10-05T09:11:21.929Z,15.30
2022-10-05T09:13:54.127Z,15.30
2022-10-05T09:16:36.647Z,15.30
2022-10-05T09:19:32.864Z,15.40
2022-10-05T09:22:07.105Z,15.40
2022-10-05T09:24:48.696Z,15.50
2022-10-05T09:27:17.016Z,15.50
2022-10-05T09:30:03.441Z,15.60
2022-10-05T09:32:54.917Z,15.70
2022-10-05T09:35:32.158Z,15.80
2022-10-05T09:38:24.637Z,15.90
2022-10-05T09:41:14.898Z,15.90
2022-10-05T09:43:58.979Z,16.00
2022-10-05T09:46:41.409Z,16.10
2022-10-05T09:49:21.369Z,16.20
2022-10-05T09:52:09.787Z,16.30
2022-10-05T09:54:56.930Z,16.30
2022-10-05T09:57:47.194Z,16.40
2022-10-05T10:00:21.726Z,16.50
2022-10-05T10:03:05.749Z,16.60
2022-10-05T10:05:50.982Z,16.60
2022-10-05T10:08:26.156Z,16.70
2022-10-05T10:11:08.129Z,16.70
2022-10-05T10:13:53.810Z,16.80
2022-10-05T10:16:26.673Z,16.80
2022-10-05T10:19:02.948Z,16.90
2022-10-05T10:21:48.770Z,17.00
2022-10-05T10:24:21.704Z,17.10
2022-10-05T10:26:59.264Z,17.20
2022-10-05T10:29:36.975Z,17.20
2022-10-05T10:32:15.082Z,17.20
2022-10-05T10:35:04.324Z,17.30
2022-10-05T10:37:39.126Z,17.30
2022-10-05T10:40:15.630Z,17.40
2022-10-05T10:42:49.224Z,17.40
2022-10-05T10:45:20.605Z,17.30
2022-10-05T10:47:53.038Z,17.30
2022-10-05T10:50:39.593Z,17.30
2022-10-05T10:53:13.669Z,17.30
2022-10-05T10:55:46.464Z,17.20
2022-10-05T10:58:33.317Z,17.20
2022-10-05T11:01:05.020Z,17.20
2022-10-05T11:03:56.499Z,17.30
2022-10-05T11:06:42.706Z,17.30
2022-10-05T11:09:21.629Z,17.40
2022-10-05T11:12:07.164Z,17.50
2022-10-05T11:14:39.270Z,17.40
2022-10-05T11:17:26.194Z,17.40
2022-10-05T11:20:04.846Z,17.40
2022-10-05T11:22:41.148Z,17.50
2022-10-05T11:25:20.780Z,17.50
2022-10-05T11:28:00.840Z,17.60
2022-10-05T11:30:50.482Z,17.60
2022-10-05T11:33:33.914Z,17.70
2022-10-05T11:36:22.897Z,17.70
2022-10-05T11:39:09.153Z,17.80
2022-10-05T11:41:46.433Z,17.80
2022-10-05T11:44:22.313Z,17.90
2022-10-05T11:46:55.867Z,17.90
2022-10-05T11:49:29.216Z,18.00
2022-10-05T11:52:03.212Z,18.00
2022-10-05T11:55:09.847Z,18.00
2022-10-05T11:57:42.356Z,18.10
2022-10-05T12:00:13.843Z,18.10
2022-10-05T12:02:56.773Z,18.20
2022-10-05T12:05:29.160Z,18.10
2022-10-05T12:08:03.668Z,18.20
2022-10-05T12:10:33.638Z,18.30
2022-10-05T12:13:06.521Z,18.30
2022-10-05T12:15:38.755Z,18.20
2022-10-05T12:18:13.584Z,18.30
2022-10-05T12:20:47.182Z,18.30
2022-10-05T12:23:20.823Z,18.40
2022-10-05T12:25:51.279Z,18.40
2022-10-05T12:28:21.150Z,18.50
2022-10-05T12:31:02.584Z,18.50
2022-10-05T12:33:35.422Z,18.60
2022-10-05T12:36:05.863Z,18.70
2022-10-05T12:38:38.550Z,18.70
2022-10-05T12:41:08.528Z,18.70
2022-10-05T12:43:39.883Z,18.80
2022-10-05T12:46:11.851Z,18.90
2022-10-05T12:48:56.146Z,18.90
2022-10-05T12:51:29.766Z,18.90
2022-10-05T12:54:02.628Z,19.00
2022-10-05T12:56:35.868Z,19.00
2022-10-05T12:59:06.996Z,19.10
2022-10-05T13:01:39.350Z,19.10
2022-10-05T13:04:14.675Z,19.20
2022-10-05T13:06:44.218Z,19.20
2022-10-05T13:09:17.264Z,19.20
2022-10-05T13:11:47.215Z,19.20
2022-10-05T13:14:18.460Z,19.30
2022-10-05T13:16:54.827Z,19.30
2022-10-05T13:19:40.625Z,19.30
2022-10-05T13:22:20.787Z,19.30
2022-10-05T13:24:55.021Z,19.40
2022-10-05T13:27:24.713Z,19.40
2022-10-05T13:29:56.339Z,19.40
2022-10-05T13:32:25.084Z,19.40
2022-10-05T13:34:56.283Z,19.40
2022-10-05T13:37:27.625Z,19.50
2022-10-05T13:40:00.758Z,19.50
2022-10-05T13:42:32.693Z,19.50
2022-10-05T13:45:02.079Z,19.60
2022-10-05T13:47:32.467Z,19.60
2022-10-05T13:50:03.257Z,19.70
2022-10-05T13:52:35.661Z,19.70
2022-10-05T13:55:13.522Z,19.70
2022-10-05T13:57:47.883Z,19.70
2022-10-05T14:00:16.529Z,19.70
2022-10-05T14:02:46.191Z,19.80
2022-10-05T14:05:18.346Z,19.80
2022-10-05T14:07:57.083Z,19.90
2022-10-05T14:10:34.862Z,19.90
2022-10-05T14:13:03.074Z,19.90
2022-10-05T14:15:32.625Z,20.00
2022-10-05T14:18:00.370Z,20.10
2022-10-05T14:20:28.778Z,20.00
2022-10-05T14:22:59.124Z,20.00
2022-10-05T14:25:28.183Z,20.10
2022-10-05T14:28:00.072Z,20.10
2022-10-05T14:30:28.691Z,20.10
2022-10-05T14:32:59.405Z,20.20
2022-10-05T14:35:29.200Z,20.40
2022-10-05T14:37:58.079Z,20.40
2022-10-05T14:40:27.590Z,20.50
2022-10-05T14:42:55.871Z,20.50
2022-10-05T14:45:26.009Z,20.40
2022-10-05T14:47:56.142Z,20.40
2022-10-05T14:50:26.309Z,20.40
2022-10-05T14:53:16.425Z,20.40
2022-10-05T14:55:55.708Z,20.40
2022-10-05T14:58:30.791Z,20.40
2022-10-05T15:01:03.006Z,20.40
2022-10-05T15:03:37.917Z,20.40
2022-10-05T15:06:09.839Z,20.40
2022-10-05T15:08:45.131Z,20.50
2022-10-05T15:11:18.017Z,20.50
2022-10-05T15:13:47.520Z,20.50
2022-10-05T15:16:19.812Z,20.50
2022-10-05T15:18:50.486Z,20.50
2022-10-05T15:21:36.141Z,20.50
2022-10-05T15:24:05.927Z,20.60
2022-10-05T15:26:43.597Z,20.50
2022-10-05T15:29:19.394Z,20.50
2022-10-05T15:31:52.831Z,20.50
2022-10-05T15:34:25.136Z,20.50
2022-10-05T15:36:56.123Z,20.50
2022-10-05T15:39:27.248Z,20.40
2022-10-05T15:42:00.170Z,20.50
2022-10-05T15:44:37.693Z,20.50
2022-10-05T15:47:10.290Z,20.40
2022-10-05T15:49:43.401Z,20.40
2022-10-05T15:52:17.644Z,20.40
2022-10-05T15:55:00.793Z,20.30
2022-10-05T15:57:34.889Z,20.30
2022-10-05T16:00:04.274Z,20.20
2022-10-05T16:02:38.572Z,20.30
2022-10-05T16:05:13.047Z,20.20
2022-10-05T16:08:02.235Z,20.20
2022-10-05T16:10:33.044Z,20.20
2022-10-05T16:13:10.347Z,20.10
2022-10-05T16:15:41.353Z,20.10
2022-10-05T16:18:31.688Z,20.10
2022-10-05T16:21:06.007Z,20.00
2022-10-05T16:23:37.354Z,19.90
2022-10-05T16:26:11.577Z,19.90
2022-10-05T16:28:43.060Z,20.00
2022-10-05T16:31:16.361Z,19.90
2022-10-05T16:33:54.236Z,19.80
2022-10-05T16:36:27.968Z,19.80
2022-10-05T16:38:59.108Z,19.70
2022-10-05T16:41:32.836Z,19.60
2022-10-05T16:44:06.861Z,19.50
2022-10-05T16:46:39.092Z,19.50
2022-10-05T16:49:14.665Z,19.50
2022-10-05T16:51:47.425Z,19.40
2022-10-05T16:54:19.049Z,19.30
2022-10-05T16:56:48.885Z,19.20
2022-10-05T16:59:30.718Z,19.20
2022-10-05T17:02:02.079Z,19.10
2022-10-05T17:04:36.574Z,19.10
2022-10-05T17:07:21.915Z,19.00
2022-10-05T17:10:19.816Z,18.90
2022-10-05T17:12:54.718Z,18.80
2022-10-05T17:15:29.168Z,18.70
2022-10-05T17:18:01.606Z,18.60
2022-10-05T17:20:45.325Z,18.40
2022-10-05T17:23:34.051Z,18.40
2022-10-05T17:26:09.274Z,18.40
2022-10-05T17:28:39.897Z,18.40
2022-10-05T17:31:18.091Z,18.30
2022-10-05T17:34:04.558Z,18.20
2022-10-05T17:36:44.043Z,18.20
2022-10-05T17:39:14.730Z,18.20
2022-10-05T17:41:42.939Z,18.10
2022-10-05T17:44:24.382Z,18.10
2022-10-05T17:46:53.119Z,18.00
2022-10-05T17:49:39.676Z,18.00
2022-10-05T17:52:39.225Z,18.00
2022-10-05T17:55:29.977Z,17.90
2022-10-05T17:57:59.820Z,17.80
2022-10-05T18:00:32.985Z,17.80
2022-10-05T18:03:00.762Z,17.70
2022-10-05T18:05:29.060Z,17.70
2022-10-05T18:08:21.219Z,17.60
2022-10-05T18:11:03.792Z,17.60
2022-10-05T18:13:35.618Z,17.50
2022-10-05T18:16:04.892Z,17.50
2022-10-05T18:18:34.536Z,17.50
2022-10-05T18:21:18.342Z,17.50
2022-10-05T18:23:49.958Z,17.50
2022-10-05T18:26:26.400Z,17.50
2022-10-05T18:29:00.316Z,17.40
2022-10-05T18:31:33.064Z,17.40
2022-10-05T18:34:16.035Z,17.40
2022-10-05T18:36:53.427Z,17.30
2022-10-05T18:39:24.676Z,17.30
2022-10-05T18:41:58.761Z,17.30
2022-10-05T18:44:35.350Z,17.20
2022-10-05T18:47:07.671Z,17.20
2022-10-05T18:49:43.448Z,17.10
2022-10-05T18:52:16.644Z,17.10
2022-10-05T18:54:51.771Z,17.10
2022-10-05T18:57:34.257Z,17.10
2022-10-05T19:00:03.384Z,17.00
2022-10-05T19:02:35.702Z,17.00
2022-10-05T19:05:23.656Z,17.00
2022-10-05T19:08:01.064Z,17.00
2022-10-05T19:10:32.050Z,17.00
2022-10-05T19:13:17.730Z,17.00
2022-10-05T19:15:50.085Z,17.00
2022-10-05T19:18:29.852Z,17.00
2022-10-05T19:21:02.010Z,17.00
2022-10-05T19:23:36.817Z,16.90
2022-10-05T19:26:11.857Z,17.00
2022-10-05T19:28:42.116Z,17.00
2022-10-05T19:31:17.507Z,17.00
2022-10-05T19:33:57.515Z,17.00
2022-10-05T19:36:31.853Z,16.90
2022-10-05T19:39:04.359Z,17.00
2022-10-05T19:41:38.194Z,17.00
2022-10-05T19:44:12.603Z,16.90
2022-10-05T19:46:48.213Z,16.90
2022-10-05T19:49:35.825Z,16.90
2022-10-05T19:52:04.433Z,16.90
2022-10-05T19:54:32.439Z,16.90
2022-10-05T19:57:02.787Z,16.90
2022-10-05T19:59:31.722Z,16.80
2022-10-05T20:01:59.886Z,16.80
2022-10-05T20:04:36.859Z,16.80
2022-10-05T20:07:04.799Z,16.80
2022-10-05T20:09:47.347Z,16.80
2022-10-05T20:12:15.615Z,16.80
2022-10-05T20:15:03.829Z,16.70
2022-10-05T20:17:49.321Z,16.70
2022-10-05T20:20:29.685Z,16.70
2022-10-05T20:23:12.327Z,16.70
2022-10-05T20:25:40.638Z,16.70
2022-10-05T20:28:08.572Z,16.70
2022-10-05T20:30:36.274Z,16.60
2022-10-05T20:33:09.211Z,16.70
2022-10-05T20:35:38.270Z,16.60
2022-10-05T20:38:05.960Z,16.60
2022-10-05T20:40:35.007Z,16.50
2022-10-05T20:43:02.680Z,16.60
2022-10-05T20:45:30.347Z,16.60
2022-10-05T20:47:57.986Z,16.50
2022-10-05T20:50:27.468Z,16.50
2022-10-05T20:52:57.596Z,16.50
2022-10-05T20:55:25.372Z,16.50
2022-10-05T20:57:53.000Z,16.50
2022-10-05T21:00:20.645Z,16.50
2022-10-05T21:02:48.299Z,16.50
2022-10-05T21:05:18.058Z,16.50
2022-10-05T21:07:46.759Z,16.50
2022-10-05T21:10:16.547Z,16.50
2022-10-05T21:12:44.354Z,16.50
2022-10-05T21:15:12.375Z,16.50
2022-10-05T21:17:40.070Z,16.50
2022-10-05T21:20:11.510Z,16.50
2022-10-05T21:22:39.174Z,16.50
2022-10-05T21:25:08.916Z,16.50
2022-10-05T21:27:37.927Z,16.50
2022-10-05T21:30:05.880Z,16.60
2022-10-05T21:32:33.612Z,16.60
2022-10-05T21:35:01.340Z,16.60
2022-10-05T21:37:29.053Z,16.60
2022-10-05T21:39:56.699Z,16.60
2022-10-05T21:42:24.348Z,16.60
2022-10-05T21:44:53.539Z,16.60
2022-10-05T21:47:21.191Z,16.60
2022-10-05T21:49:48.858Z,16.60
2022-10-05T21:52:16.535Z,16.60
2022-10-05T21:54:44.223Z,16.70
2022-10-05T21:57:12.110Z,16.70
2022-10-05T21:59:40.111Z,16.70
2022-10-05T22:02:10.916Z,16.60
2022-10-05T22:04:39.016Z,16.70
2022-10-05T22:07:10.843Z,16.60
2022-10-05T22:09:38.831Z,16.70
2022-10-05T22:12:07.005Z,16.60
2022-10-05T22:14:35.049Z,16.60
2022-10-05T22:17:03.115Z,16.60
2022-10-05T22:19:32.987Z,16.60
2022-10-05T22:22:01.113Z,16.60
2022-10-05T22:24:29.277Z,16.60
2022-10-05T22:26:57.406Z,16.60
2022-10-05T22:29:25.524Z,16.60
2022-10-05T22:31:56.051Z,16.60
2022-10-05T22:34:24.212Z,16.60
2022-10-05T22:36:53.968Z,16.60
2022-10-05T22:39:22.045Z,16.60
2022-10-05T22:41:50.561Z,16.60
2022-10-05T22:44:18.690Z,16.60
2022-10-05T22:46:46.713Z,16.50
2022-10-05T22:49:18.756Z,16.60
2022-10-05T22:51:48.217Z,16.50
2022-10-05T22:54:17.782Z,16.50
2022-10-05T22:56:45.798Z,16.50
2022-10-05T22:59:13.839Z,16.50
2022-10-05T23:01:42.547Z,16.50
2022-10-05T23:04:12.669Z,16.60
2022-10-05T23:06:41.105Z,16.60
2022-10-05T23:09:08.778Z,16.60
2022-10-05T23:11:37.771Z,16.60
2022-10-05T23:14:05.560Z,16.60
2022-10-05T23:16:33.439Z,16.60
2022-10-05T23:19:01.178Z,16.60
2022-10-05T23:21:29.465Z,16.60
2022-10-05T23:23:57.143Z,16.60
2022-10-05T23:26:25.510Z,16.60
2022-10-05T23:28:54.514Z,16.60
2022-10-05T23:31:23.009Z,16.70
2022-10-05T23:33:50.784Z,16.70
2022-10-05T23:36:19.062Z,16.70
2022-10-05T23:38:47.062Z,16.70
2022-10-05T23:41:15.978Z,16.70
2022-10-05T23:43:44.047Z,16.60
2022-10-05T23:46:13.773Z,16.60
2022-10-05T23:48:41.558Z,16.60
2022-10-05T23:51:10.207Z,16.60
2022-10-05T23:53:38.186Z,16.70
2022-10-05T23:56:05.961Z,16.70
2022-10-05T23:58:33.643Z,16.70
